sensor_id;sensor_type;location;lat;lon;timestamp;pressure;altitude;pressure_sealevel;temperature;humidity
50226;BME280;36113;50.742;6.432;2022-10-22T00:00:09;148502.03;;;14.34;100.00
50226;BME280;36113;50.742;6.432;2022-10-22T00:02:35;148563.59;;;14.59;100.00
50226;BME280;36113;50.742;6.432;2022-10-22T00:05:01;148564.88;;;14.60;100.00
50226;BME280;36113;50.742;6.432;2022-10-22T00:07:26;148510.81;;;14.38;100.00
50226;BME280;36113;50.742;6.432;2022-10-22T00:09:51;148539.72;;;14.50;100.00
50226;BME280;36113;50.742;6.432;2022-10-22T00:12:18;148573.69;;;14.63;100.00
50226;BME280;36113;50.742;6.432;2022-10-22T00:14:43;148568.66;;;14.61;100.00
50226;BME280;36113;50.742;6.432;2022-10-22T00:17:08;148525.91;;;14.44;100.00
50226;BME280;36113;50.742;6.432;2022-10-22T00:19:34;148554.75;;;14.56;100.00
50226;BME280;36113;50.742;6.432;2022-10-22T00:21:59;148559.81;;;14.58;100.00
50226;BME280;36113;50.742;6.432;2022-10-22T00:24:25;148574.91;;;14.64;100.00
50226;BME280;36113;50.742;6.432;2022-10-22T00:26:50;148533.41;;;14.47;100.00
50226;BME280;36113;50.742;6.432;2022-10-22T00:29:16;148583.72;;;14.68;100.00
50226;BME280;36113;50.742;6.432;2022-10-22T00:31:45;148548.50;;;14.53;100.00
50226;BME280;36113;50.742;6.432;2022-10-22T00:34:15;148542.19;;;14.51;100.00
50226;BME280;36113;50.742;6.432;2022-10-22T00:36:41;148534.69;;;14.48;100.00
50226;BME280;36113;50.742;6.432;2022-10-22T00:39:06;148543.50;;;14.51;100.00
50226;BME280;36113;50.742;6.432;2022-10-22T00:41:31;148529.63;;;14.45;100.00
50226;BME280;36113;50.742;6.432;2022-10-22T00:44:03;148540.97;;;14.50;100.00
50226;BME280;36113;50.742;6.432;2022-10-22T00:46:29;148547.25;;;14.53;100.00
50226;BME280;36113;50.742;6.432;2022-10-22T00:48:55;148545.97;;;14.52;100.00
50226;BME280;36113;50.742;6.432;2022-10-22T00:51:25;148525.91;;;14.44;100.00
50226;BME280;36113;50.742;6.432;2022-10-22T00:53:54;148525.91;;;14.44;100.00
50226;BME280;36113;50.742;6.432;2022-10-22T00:56:22;148469.38;;;14.21;100.00
50226;BME280;36113;50.742;6.432;2022-10-22T00:58:51;148530.94;;;14.46;100.00
50226;BME280;36113;50.742;6.432;2022-10-22T01:01:20;148513.34;;;14.39;100.00
50226;BME280;36113;50.742;6.432;2022-10-22T01:03:47;148543.50;;;14.51;100.00
50226;BME280;36113;50.742;6.432;2022-10-22T01:06:19;148505.81;;;14.36;100.00
50226;BME280;36113;50.742;6.432;2022-10-22T01:12:12;148549.75;;;14.54;100.00
50226;BME280;36113;50.742;6.432;2022-10-22T01:15:09;148556.06;;;14.56;100.00
50226;BME280;36113;50.742;6.432;2022-10-22T01:17:51;148505.81;;;14.36;100.00
50226;BME280;36113;50.742;6.432;2022-10-22T01:26:05;148554.75;;;14.56;100.00
50226;BME280;36113;50.742;6.432;2022-10-22T01:31:15;148545.97;;;14.52;100.00
50226;BME280;36113;50.742;6.432;2022-10-22T01:33:43;148544.72;;;14.52;100.00
50226;BME280;36113;50.742;6.432;2022-10-22T01:36:11;148551.00;;;14.54;100.00
50226;BME280;36113;50.742;6.432;2022-10-22T01:38:36;148549.75;;;14.54;100.00
50226;BME280;36113;50.742;6.432;2022-10-22T01:41:03;148524.63;;;14.43;100.00
50226;BME280;36113;50.742;6.432;2022-10-22T01:43:28;148493.25;;;14.31;100.00
50226;BME280;36113;50.742;6.432;2022-10-22T01:45:58;148554.75;;;14.56;100.00
50226;BME280;36113;50.742;6.432;2022-10-22T02:04:45;148520.84;;;14.42;100.00
50226;BME280;36113;50.742;6.432;2022-10-22T02:07:14;148493.25;;;14.31;100.00
50226;BME280;36113;50.742;6.432;2022-10-22T02:09:42;148485.69;;;14.28;100.00
50226;BME280;36113;50.742;6.432;2022-10-22T02:12:09;148512.06;;;14.38;100.00
50226;BME280;36113;50.742;6.432;2022-10-22T02:14:38;148495.72;;;14.32;100.00
50226;BME280;36113;50.742;6.432;2022-10-22T02:17:08;148484.47;;;14.27;100.00
50226;BME280;36113;50.742;6.432;2022-10-22T02:19:40;148464.38;;;14.19;100.00
50226;BME280;36113;50.742;6.432;2022-10-22T02:22:08;148474.38;;;14.23;100.00
50226;BME280;36113;50.742;6.432;2022-10-22T02:24:34;148475.69;;;14.23;100.00
50226;BME280;36113;50.742;6.432;2022-10-22T02:29:42;148459.34;;;14.17;100.00
50226;BME280;36113;50.742;6.432;2022-10-22T02:32:12;148463.13;;;14.18;100.00
50226;BME280;36113;50.742;6.432;2022-10-22T02:34:40;148479.41;;;14.25;100.00
50226;BME280;36113;50.742;6.432;2022-10-22T02:37:06;148483.16;;;14.26;100.00
50226;BME280;36113;50.742;6.432;2022-10-22T02:39:32;148436.72;;;14.07;100.00
50226;BME280;36113;50.742;6.432;2022-10-22T02:42:00;148473.16;;;14.22;100.00
50226;BME280;36113;50.742;6.432;2022-10-22T02:44:25;148450.56;;;14.13;100.00
50226;BME280;36113;50.742;6.432;2022-10-22T02:46:51;148486.94;;;14.28;100.00
50226;BME280;36113;50.742;6.432;2022-10-22T02:49:16;148439.25;;;14.09;100.00
50226;BME280;36113;50.742;6.432;2022-10-22T02:51:42;148476.91;;;14.24;100.00
50226;BME280;36113;50.742;6.432;2022-10-22T02:54:07;148471.91;;;14.22;100.00
50226;BME280;36113;50.742;6.432;2022-10-22T02:56:32;148446.78;;;14.12;100.00
50226;BME280;36113;50.742;6.432;2022-10-22T02:58:58;148435.47;;;14.07;100.00
50226;BME280;36113;50.742;6.432;2022-10-22T03:01:23;148470.63;;;14.21;100.00
50226;BME280;36113;50.742;6.432;2022-10-22T03:03:49;148470.63;;;14.21;100.00
50226;BME280;36113;50.742;6.432;2022-10-22T03:06:14;148486.94;;;14.28;100.00
50226;BME280;36113;50.742;6.432;2022-10-22T03:08:40;148470.63;;;14.21;100.00
50226;BME280;36113;50.742;6.432;2022-10-22T03:11:05;148445.50;;;14.11;100.00
50226;BME280;36113;50.742;6.432;2022-10-22T03:13:31;148478.16;;;14.24;100.00
50226;BME280;36113;50.742;6.432;2022-10-22T03:15:56;148432.94;;;14.06;100.00
50226;BME280;36113;50.742;6.432;2022-10-22T03:18:21;148421.66;;;14.01;100.00
50226;BME280;36113;50.742;6.432;2022-10-22T03:20:47;148411.59;;;13.97;100.00
50226;BME280;36113;50.742;6.432;2022-10-22T03:23:14;148443.00;;;14.10;100.00
50226;BME280;36113;50.742;6.432;2022-10-22T03:25:42;148453.03;;;14.14;100.00
50226;BME280;36113;50.742;6.432;2022-10-22T03:28:09;148444.25;;;14.11;100.00
50226;BME280;36113;50.742;6.432;2022-10-22T03:30:37;148382.72;;;13.85;100.00
50226;BME280;36113;50.742;6.432;2022-10-22T03:33:03;148445.50;;;14.11;100.00
50226;BME280;36113;50.742;6.432;2022-10-22T03:35:29;148441.72;;;14.10;100.00
50226;BME280;36113;50.742;6.432;2022-10-22T03:37:55;148410.34;;;13.97;100.00
50226;BME280;36113;50.742;6.432;2022-10-22T03:40:23;148432.94;;;14.06;100.00
50226;BME280;36113;50.742;6.432;2022-10-22T03:42:49;148389.00;;;13.88;100.00
50226;BME280;36113;50.742;6.432;2022-10-22T03:45:14;148380.22;;;13.84;100.00
50226;BME280;36113;50.742;6.432;2022-10-22T03:47:39;148371.44;;;13.81;100.00
50226;BME280;36113;50.742;6.432;2022-10-22T03:50:05;148421.66;;;14.01;100.00
50226;BME280;36113;50.742;6.432;2022-10-22T03:52:35;148386.47;;;13.87;100.00
50226;BME280;36113;50.742;6.432;2022-10-22T03:55:01;148394.03;;;13.90;100.00
50226;BME280;36113;50.742;6.432;2022-10-22T03:57:26;148380.22;;;13.84;100.00
50226;BME280;36113;50.742;6.432;2022-10-22T03:59:51;148390.25;;;13.88;100.00
50226;BME280;36113;50.742;6.432;2022-10-22T04:02:16;148343.81;;;13.69;100.00
50226;BME280;36113;50.742;6.432;2022-10-22T04:04:42;148328.78;;;13.63;100.00
50226;BME280;36113;50.742;6.432;2022-10-22T04:07:07;148357.59;;;13.75;100.00
50226;BME280;36113;50.742;6.432;2022-10-22T04:09:33;148365.16;;;13.78;100.00
50226;BME280;36113;50.742;6.432;2022-10-22T04:11:59;148299.91;;;13.52;100.00
50226;BME280;36113;50.742;6.432;2022-10-22T04:14:25;148381.47;;;13.85;100.00
50226;BME280;36113;50.742;6.432;2022-10-22T04:16:50;148307.44;;;13.55;100.00
50226;BME280;36113;50.742;6.432;2022-10-22T04:19:16;148304.91;;;13.54;100.00
50226;BME280;36113;50.742;6.432;2022-10-22T04:21:42;148331.25;;;13.64;100.00
50226;BME280;36113;50.742;6.432;2022-10-22T04:24:07;148330.00;;;13.64;100.00
50226;BME280;36113;50.742;6.432;2022-10-22T04:26:33;148335.03;;;13.66;100.00
50226;BME280;36113;50.742;6.432;2022-10-22T04:28:58;148337.56;;;13.67;100.00
50226;BME280;36113;50.742;6.432;2022-10-22T04:31:25;148289.81;;;13.47;100.00
50226;BME280;36113;50.742;6.432;2022-10-22T04:33:54;148326.25;;;13.62;100.00
50226;BME280;36113;50.742;6.432;2022-10-22T04:36:20;148316.22;;;13.58;100.00
50226;BME280;36113;50.742;6.432;2022-10-22T04:38:46;148297.38;;;13.50;100.00
50226;BME280;36113;50.742;6.432;2022-10-22T04:41:22;148312.44;;;13.57;100.00
50226;BME280;36113;50.742;6.432;2022-10-22T04:43:48;148313.69;;;13.57;100.00
50226;BME280;36113;50.742;6.432;2022-10-22T04:46:14;148311.16;;;13.56;100.00
50226;BME280;36113;50.742;6.432;2022-10-22T04:48:41;148303.66;;;13.53;100.00
50226;BME280;36113;50.742;6.432;2022-10-22T04:51:07;148296.13;;;13.50;100.00
50226;BME280;36113;50.742;6.432;2022-10-22T04:53:35;148301.13;;;13.52;100.00
50226;BME280;36113;50.742;6.432;2022-10-22T04:58:31;148271.03;;;13.40;100.00
50226;BME280;36113;50.742;6.432;2022-10-22T05:00:57;148250.94;;;13.31;100.00
50226;BME280;36113;50.742;6.432;2022-10-22T05:03:24;148259.72;;;13.35;100.00
50226;BME280;36113;50.742;6.432;2022-10-22T05:05:49;148267.25;;;13.38;100.00
50226;BME280;36113;50.742;6.432;2022-10-22T05:08:14;148214.47;;;13.17;100.00
50226;BME280;36113;50.742;6.432;2022-10-22T05:10:40;148175.59;;;13.01;100.00
50226;BME280;36113;50.742;6.432;2022-10-22T05:13:05;148220.78;;;13.19;100.00
50226;BME280;36113;50.742;6.432;2022-10-22T05:15:32;148196.91;;;13.09;100.00
50226;BME280;36113;50.742;6.432;2022-10-22T05:17:57;148215.75;;;13.17;100.00
50226;BME280;36113;50.742;6.432;2022-10-22T05:20:22;148223.25;;;13.20;100.00
50226;BME280;36113;50.742;6.432;2022-10-22T05:22:48;148204.47;;;13.12;100.00
50226;BME280;36113;50.742;6.432;2022-10-22T05:25:13;148199.44;;;13.10;100.00
50226;BME280;36113;50.742;6.432;2022-10-22T05:27:38;148195.69;;;13.09;100.00
50226;BME280;36113;50.742;6.432;2022-10-22T05:30:04;148154.25;;;12.92;100.00
50226;BME280;36113;50.742;6.432;2022-10-22T05:32:30;148214.47;;;13.17;100.00
50226;BME280;36113;50.742;6.432;2022-10-22T05:34:55;148169.34;;;12.98;100.00
50226;BME280;36113;50.742;6.432;2022-10-22T05:37:20;148180.59;;;13.03;100.00
50226;BME280;36113;50.742;6.432;2022-10-22T05:39:46;148139.19;;;12.86;100.00
50226;BME280;36113;50.742;6.432;2022-10-22T05:42:11;148183.13;;;13.04;100.00
50226;BME280;36113;50.742;6.432;2022-10-22T05:44:36;148148.00;;;12.89;100.00
50226;BME280;36113;50.742;6.432;2022-10-22T05:47:03;148190.66;;;13.07;100.00
50226;BME280;36113;50.742;6.432;2022-10-22T05:49:28;148189.38;;;13.06;100.00
50226;BME280;36113;50.742;6.432;2022-10-22T05:51:53;148203.22;;;13.12;100.00
50226;BME280;36113;50.742;6.432;2022-10-22T05:54:20;148205.69;;;13.13;100.00
50226;BME280;36113;50.742;6.432;2022-10-22T05:56:49;148198.22;;;13.10;100.00
50226;BME280;36113;50.742;6.432;2022-10-22T05:59:14;148171.81;;;12.99;100.00
50226;BME280;36113;50.742;6.432;2022-10-22T06:01:39;148166.81;;;12.97;100.00
50226;BME280;36113;50.742;6.432;2022-10-22T06:04:08;148089.06;;;12.65;100.00
50226;BME280;36113;50.742;6.432;2022-10-22T06:06:38;148141.72;;;12.87;100.00
50226;BME280;36113;50.742;6.432;2022-10-22T06:09:13;148114.09;;;12.75;100.00
50226;BME280;36113;50.742;6.432;2022-10-22T06:11:40;148164.28;;;12.96;100.00
50226;BME280;36113;50.742;6.432;2022-10-22T06:14:05;148107.84;;;12.73;100.00
50226;BME280;36113;50.742;6.432;2022-10-22T06:16:31;148107.84;;;12.73;100.00
50226;BME280;36113;50.742;6.432;2022-10-22T06:19:00;148189.38;;;13.06;100.00
50226;BME280;36113;50.742;6.432;2022-10-22T06:21:30;148164.28;;;12.96;100.00
50226;BME280;36113;50.742;6.432;2022-10-22T06:23:55;148149.25;;;12.90;100.00
50226;BME280;36113;50.742;6.432;2022-10-22T06:26:21;148122.91;;;12.79;100.00
50226;BME280;36113;50.742;6.432;2022-10-22T06:28:46;148144.25;;;12.88;100.00
50226;BME280;36113;50.742;6.432;2022-10-22T06:31:12;148106.59;;;12.72;100.00
50226;BME280;36113;50.742;6.432;2022-10-22T06:33:38;148141.72;;;12.87;100.00
50226;BME280;36113;50.742;6.432;2022-10-22T06:36:08;148137.94;;;12.85;100.00
50226;BME280;36113;50.742;6.432;2022-10-22T06:38:35;148135.47;;;12.84;100.00
50226;BME280;36113;50.742;6.432;2022-10-22T06:41:05;148174.34;;;13.00;100.00
50226;BME280;36113;50.742;6.432;2022-10-22T06:43:31;148164.28;;;12.96;100.00
50226;BME280;36113;50.742;6.432;2022-10-22T06:46:01;148175.59;;;13.01;100.00
50226;BME280;36113;50.742;6.432;2022-10-22T06:48:27;148200.69;;;13.11;100.00
50226;BME280;36113;50.742;6.432;2022-10-22T06:50:52;148208.22;;;13.14;100.00
50226;BME280;36113;50.742;6.432;2022-10-22T06:53:17;148247.13;;;13.30;100.00
50226;BME280;36113;50.742;6.432;2022-10-22T06:55:43;148191.91;;;13.07;100.00
50226;BME280;36113;50.742;6.432;2022-10-22T06:58:08;148215.75;;;13.17;100.00
50226;BME280;36113;50.742;6.432;2022-10-22T07:00:33;148214.47;;;13.17;100.00
50226;BME280;36113;50.742;6.432;2022-10-22T07:02:58;148230.78;;;13.23;100.00
50226;BME280;36113;50.742;6.432;2022-10-22T07:05:24;148260.94;;;13.36;100.00
50226;BME280;36113;50.742;6.432;2022-10-22T07:07:49;148262.25;;;13.36;100.00
50226;BME280;36113;50.742;6.432;2022-10-22T07:10:14;148271.03;;;13.40;100.00
50226;BME280;36113;50.742;6.432;2022-10-22T07:12:40;148266.00;;;13.38;100.00
50226;BME280;36113;50.742;6.432;2022-10-22T07:15:05;148276.03;;;13.42;100.00
50226;BME280;36113;50.742;6.432;2022-10-22T07:17:31;148273.50;;;13.41;100.00
50226;BME280;36113;50.742;6.432;2022-10-22T07:19:56;148312.44;;;13.57;100.00
50226;BME280;36113;50.742;6.432;2022-10-22T07:22:21;148269.78;;;13.39;100.00
50226;BME280;36113;50.742;6.432;2022-10-22T07:24:47;148313.69;;;13.57;100.00
50226;BME280;36113;50.742;6.432;2022-10-22T07:27:12;148338.78;;;13.67;100.00
50226;BME280;36113;50.742;6.432;2022-10-22T07:29:37;148367.69;;;13.79;100.00
50226;BME280;36113;50.742;6.432;2022-10-22T07:32:03;148361.38;;;13.77;100.00
50226;BME280;36113;50.742;6.432;2022-10-22T07:34:29;148389.00;;;13.88;100.00
50226;BME280;36113;50.742;6.432;2022-10-22T07:36:55;148439.25;;;14.09;100.00
50226;BME280;36113;50.742;6.432;2022-10-22T07:39:21;148434.22;;;14.06;100.00
50226;BME280;36113;50.742;6.432;2022-10-22T07:41:47;148445.50;;;14.11;100.00
50226;BME280;36113;50.742;6.432;2022-10-22T07:44:12;148400.34;;;13.93;100.00
50226;BME280;36113;50.742;6.432;2022-10-22T07:46:37;148427.94;;;14.04;100.00
50226;BME280;36113;50.742;6.432;2022-10-22T07:49:03;148453.03;;;14.14;100.00
50226;BME280;36113;50.742;6.432;2022-10-22T07:51:28;148484.47;;;14.27;100.00
50226;BME280;36113;50.742;6.432;2022-10-22T07:53:53;148538.44;;;14.49;100.00
50226;BME280;36113;50.742;6.432;2022-10-22T07:56:19;148562.34;;;14.59;100.00
50226;BME280;36113;50.742;6.432;2022-10-22T07:58:44;148597.56;;;14.73;100.00
50226;BME280;36113;50.742;6.432;2022-10-22T08:01:10;148573.69;;;14.63;100.00
50226;BME280;36113;50.742;6.432;2022-10-22T08:03:35;148525.91;;;14.44;100.00
50226;BME280;36113;50.742;6.432;2022-10-22T08:06:00;148603.81;;;14.76;100.00
50226;BME280;36113;50.742;6.432;2022-10-22T08:08:26;148587.47;;;14.69;100.00
50226;BME280;36113;50.742;6.432;2022-10-22T08:10:51;148592.50;;;14.71;100.00
50226;BME280;36113;50.742;6.432;2022-10-22T08:13:18;148581.22;;;14.67;100.00
50226;BME280;36113;50.742;6.432;2022-10-22T08:15:43;148587.47;;;14.69;100.00
50226;BME280;36113;50.742;6.432;2022-10-22T08:18:10;148509.59;;;14.37;100.00
50226;BME280;36113;50.742;6.432;2022-10-22T08:20:36;148587.47;;;14.69;100.00
50226;BME280;36113;50.742;6.432;2022-10-22T08:23:01;148600.03;;;14.74;100.00
50226;BME280;36113;50.742;6.432;2022-10-22T08:25:26;148596.28;;;14.73;100.00
50226;BME280;36113;50.742;6.432;2022-10-22T08:27:52;148591.25;;;14.71;100.00
50226;BME280;36113;50.742;6.432;2022-10-22T08:30:17;148537.19;;;14.49;100.00
50226;BME280;36113;50.742;6.432;2022-10-22T08:32:43;148585.00;;;14.68;100.00
50226;BME280;36113;50.742;6.432;2022-10-22T08:35:09;148571.16;;;14.62;100.00
50226;BME280;36113;50.742;6.432;2022-10-22T08:37:34;148556.06;;;14.56;100.00
50226;BME280;36113;50.742;6.432;2022-10-22T08:40:00;148583.72;;;14.68;100.00
50226;BME280;36113;50.742;6.432;2022-10-22T08:42:49;148563.59;;;14.59;100.00
50226;BME280;36113;50.742;6.432;2022-10-22T08:48:31;148579.94;;;14.66;100.00
50226;BME280;36113;50.742;6.432;2022-10-22T08:50:57;148600.03;;;14.74;100.00
50226;BME280;36113;50.742;6.432;2022-10-22T08:56:53;148598.81;;;14.74;100.00
50226;BME280;36113;50.742;6.432;2022-10-22T09:01:52;148607.59;;;14.77;100.00
50226;BME280;36113;50.742;6.432;2022-10-22T09:04:38;148621.41;;;14.83;100.00
50226;BME280;36113;50.742;6.432;2022-10-22T09:07:09;148625.16;;;14.85;100.00
50226;BME280;36113;50.742;6.432;2022-10-22T09:09:41;148588.72;;;14.70;100.00
50226;BME280;36113;50.742;6.432;2022-10-22T09:12:13;148591.25;;;14.71;100.00
50226;BME280;36113;50.742;6.432;2022-10-22T09:14:39;148587.47;;;14.69;100.00
50226;BME280;36113;50.742;6.432;2022-10-22T09:17:28;148615.13;;;14.80;100.00
50226;BME280;36113;50.742;6.432;2022-10-22T09:20:20;148617.63;;;14.81;100.00
50226;BME280;36113;50.742;6.432;2022-10-22T09:25:30;148601.28;;;14.75;100.00
50226;BME280;36113;50.742;6.432;2022-10-22T09:27:57;148576.16;;;14.65;100.00
50226;BME280;36113;50.742;6.432;2022-10-22T09:30:27;148588.72;;;14.70;100.00
50226;BME280;36113;50.742;6.432;2022-10-22T09:32:59;148585.00;;;14.68;100.00
50226;BME280;36113;50.742;6.432;2022-10-22T09:35:26;148613.84;;;14.80;100.00
50226;BME280;36113;50.742;6.432;2022-10-22T09:37:54;148622.69;;;14.84;100.00
50226;BME280;36113;50.742;6.432;2022-10-22T09:40:21;148636.50;;;14.89;100.00
50226;BME280;36113;50.742;6.432;2022-10-22T09:42:46;148528.41;;;14.45;100.00
50226;BME280;36113;50.742;6.432;2022-10-22T09:45:22;148558.53;;;14.57;100.00
50226;BME280;36113;50.742;6.432;2022-10-22T09:47:49;148598.81;;;14.74;100.00
50226;BME280;36113;50.742;6.432;2022-10-22T09:52:45;148631.47;;;14.87;100.00
50226;BME280;36113;50.742;6.432;2022-10-22T09:55:18;148618.91;;;14.82;100.00
50226;BME280;36113;50.742;6.432;2022-10-22T09:57:52;148646.53;;;14.93;100.00
50226;BME280;36113;50.742;6.432;2022-10-22T10:00:18;148644.03;;;14.92;100.00
50226;BME280;36113;50.742;6.432;2022-10-22T10:02:44;148606.34;;;14.77;100.00
50226;BME280;36113;50.742;6.432;2022-10-22T10:05:17;148660.34;;;14.99;100.00
50226;BME280;36113;50.742;6.432;2022-10-22T10:07:43;148680.44;;;15.07;100.00
50226;BME280;36113;50.742;6.432;2022-10-22T10:10:26;148688.00;;;15.10;100.00
50226;BME280;36113;50.742;6.432;2022-10-22T10:13:15;148725.69;;;15.26;100.00
50226;BME280;36113;50.742;6.432;2022-10-22T10:15:53;148720.69;;;15.24;100.00
50226;BME280;36113;50.742;6.432;2022-10-22T10:23:50;148808.66;;;15.60;100.00
50226;BME280;36113;50.742;6.432;2022-10-22T10:26:29;148782.22;;;15.49;100.00
50226;BME280;36113;50.742;6.432;2022-10-22T10:29:22;148807.38;;;15.59;100.00
50226;BME280;36113;50.742;6.432;2022-10-22T10:38:05;148850.19;;;15.77;100.00
50226;BME280;36113;50.742;6.432;2022-10-22T10:43:26;148847.66;;;15.75;100.00
50226;BME280;36113;50.742;6.432;2022-10-22T10:49:09;148779.75;;;15.48;100.00
50226;BME280;36113;50.742;6.432;2022-10-22T10:54:43;148871.56;;;15.85;100.00
50226;BME280;36113;50.742;6.432;2022-10-22T10:57:41;148885.38;;;15.91;100.00
50226;BME280;36113;50.742;6.432;2022-10-22T11:00:15;148840.06;;;15.72;100.00
50226;BME280;36113;50.742;6.432;2022-10-22T11:05:54;148838.81;;;15.72;100.00
50226;BME280;36113;50.742;6.432;2022-10-22T11:08:42;148853.97;;;15.78;100.00
50226;BME280;36113;50.742;6.432;2022-10-22T11:11:17;148875.34;;;15.87;100.00
50226;BME280;36113;50.742;6.432;2022-10-22T11:14:29;148881.59;;;15.89;100.00
50226;BME280;36113;50.742;6.432;2022-10-22T11:17:22;148890.41;;;15.93;100.00
50226;BME280;36113;50.742;6.432;2022-10-22T11:20:12;148856.47;;;15.79;100.00
50226;BME280;36113;50.742;6.432;2022-10-22T11:22:47;148874.06;;;15.86;100.00
50226;BME280;36113;50.742;6.432;2022-10-22T11:30:22;148902.97;;;15.98;100.00
50226;BME280;36113;50.742;6.432;2022-10-22T11:33:00;148938.22;;;16.12;100.00
50226;BME280;36113;50.742;6.432;2022-10-22T11:35:30;148947.00;;;16.16;100.00
50226;BME280;36113;50.742;6.432;2022-10-22T11:37:57;148939.47;;;16.13;100.00
50226;BME280;36113;50.742;6.432;2022-10-22T11:43:27;148978.44;;;16.29;100.00
50226;BME280;36113;50.742;6.432;2022-10-22T11:46:26;148953.28;;;16.19;100.00
50226;BME280;36113;50.742;6.432;2022-10-22T11:51:40;148988.47;;;16.33;100.00
50226;BME280;36113;50.742;6.432;2022-10-22T11:54:40;149014.91;;;16.44;100.00
50226;BME280;36113;50.742;6.432;2022-10-22T11:57:18;148987.22;;;16.33;100.00
50226;BME280;36113;50.742;6.432;2022-10-22T11:59:48;148989.75;;;16.34;100.00
50226;BME280;36113;50.742;6.432;2022-10-22T12:02:29;149092.88;;;16.76;100.00
50226;BME280;36113;50.742;6.432;2022-10-22T12:05:29;149084.06;;;16.72;100.00
50226;BME280;36113;50.742;6.432;2022-10-22T12:08:01;149085.31;;;16.73;100.00
50226;BME280;36113;50.742;6.432;2022-10-22T12:10:54;149111.78;;;16.83;100.00
50226;BME280;36113;50.742;6.432;2022-10-22T12:13:30;149110.47;;;16.83;100.00
50226;BME280;36113;50.742;6.432;2022-10-22T12:15:58;149076.53;;;16.69;100.00
50226;BME280;36113;50.742;6.432;2022-10-22T12:18:30;149090.41;;;16.75;100.00
50226;BME280;36113;50.742;6.432;2022-10-22T12:20:57;149060.22;;;16.62;100.00
50226;BME280;36113;50.742;6.432;2022-10-22T12:23:29;149023.72;;;16.47;100.00
50226;BME280;36113;50.742;6.432;2022-10-22T12:25:55;149050.13;;;16.58;100.00
50226;BME280;36113;50.742;6.432;2022-10-22T12:28:21;149051.38;;;16.59;100.00
50226;BME280;36113;50.742;6.432;2022-10-22T12:30:47;149021.19;;;16.46;100.00
50226;BME280;36113;50.742;6.432;2022-10-22T12:33:30;149037.53;;;16.53;100.00
50226;BME280;36113;50.742;6.432;2022-10-22T12:35:57;149001.06;;;16.38;100.00
50226;BME280;36113;50.742;6.432;2022-10-22T12:38:24;149012.38;;;16.43;100.00
50226;BME280;36113;50.742;6.432;2022-10-22T12:40:54;149037.53;;;16.53;100.00
50226;BME280;36113;50.742;6.432;2022-10-22T12:43:27;149031.28;;;16.50;100.00
50226;BME280;36113;50.742;6.432;2022-10-22T12:45:54;149033.75;;;16.52;100.00
50226;BME280;36113;50.742;6.432;2022-10-22T12:48:27;148984.75;;;16.31;100.00
50226;BME280;36113;50.742;6.432;2022-10-22T12:50:57;149063.94;;;16.64;100.00
50226;BME280;36113;50.742;6.432;2022-10-22T12:53:36;149120.63;;;16.87;100.00
50226;BME280;36113;50.742;6.432;2022-10-22T12:56:05;149121.88;;;16.87;100.00
50226;BME280;36113;50.742;6.432;2022-10-22T12:58:39;149086.63;;;16.73;100.00
50226;BME280;36113;50.742;6.432;2022-10-22T13:01:05;149085.31;;;16.73;100.00
50226;BME280;36113;50.742;6.432;2022-10-22T13:03:34;149135.69;;;16.93;100.00
50226;BME280;36113;50.742;6.432;2022-10-22T13:08:53;149204.94;;;17.21;100.00
50226;BME280;36113;50.742;6.432;2022-10-22T13:11:19;149202.38;;;17.20;100.00
50226;BME280;36113;50.742;6.432;2022-10-22T13:13:45;149226.31;;;17.30;100.00
50226;BME280;36113;50.742;6.432;2022-10-22T13:16:16;149173.44;;;17.09;100.00
50226;BME280;36113;50.742;6.432;2022-10-22T13:18:42;149203.69;;;17.21;100.00
50226;BME280;36113;50.742;6.432;2022-10-22T13:24:19;149202.38;;;17.20;100.00
50226;BME280;36113;50.742;6.432;2022-10-22T13:26:47;149174.72;;;17.09;99.96
50226;BME280;36113;50.742;6.432;2022-10-22T13:29:16;149236.38;;;17.34;99.13
50226;BME280;36113;50.742;6.432;2022-10-22T13:31:45;149272.88;;;17.49;97.87
50226;BME280;36113;50.742;6.432;2022-10-22T13:34:15;149260.28;;;17.44;98.52
50226;BME280;36113;50.742;6.432;2022-10-22T13:36:41;149227.56;;;17.31;99.06
50226;BME280;36113;50.742;6.432;2022-10-22T13:39:12;149181.00;;;17.12;99.27
50226;BME280;36113;50.742;6.432;2022-10-22T13:41:40;149211.19;;;17.24;99.42
50226;BME280;36113;50.742;6.432;2022-10-22T13:44:05;149246.47;;;17.38;99.11
50226;BME280;36113;50.742;6.432;2022-10-22T13:46:31;149207.41;;;17.22;99.67
50226;BME280;36113;50.742;6.432;2022-10-22T13:48:56;149227.56;;;17.31;99.97
50226;BME280;36113;50.742;6.432;2022-10-22T13:51:28;149177.22;;;17.10;99.21
50226;BME280;36113;50.742;6.432;2022-10-22T13:53:55;149247.72;;;17.39;99.58
50226;BME280;36113;50.742;6.432;2022-10-22T13:56:22;149232.59;;;17.33;99.69
50226;BME280;36113;50.742;6.432;2022-10-22T13:58:48;149235.13;;;17.34;99.99
50226;BME280;36113;50.742;6.432;2022-10-22T14:01:24;149221.28;;;17.28;98.09
50226;BME280;36113;50.742;6.432;2022-10-22T14:03:51;149217.50;;;17.27;98.33
50226;BME280;36113;50.742;6.432;2022-10-22T14:06:19;149235.13;;;17.34;99.04
50226;BME280;36113;50.742;6.432;2022-10-22T14:08:48;149262.81;;;17.45;97.22
50226;BME280;36113;50.742;6.432;2022-10-22T14:11:15;149250.25;;;17.40;97.29
50226;BME280;36113;50.742;6.432;2022-10-22T14:13:40;149162.16;;;17.04;98.45
50226;BME280;36113;50.742;6.432;2022-10-22T14:16:10;149211.19;;;17.24;98.62